createdAt,value
2022-11-24T00:01:09.636Z,13.73
2022-11-24T00:03:37.587Z,12.40
2022-11-24T00:06:09.984Z,11.57
2022-11-24T00:08:39.330Z,13.23
2022-11-24T00:11:08.917Z,9.77
2022-11-24T00:13:36.153Z,8.97
2022-11-24T00:16:12.893Z,8.07
2022-11-24T00:18:45.303Z,7.60
2022-11-24T00:21:13.233Z,10.57
2022-11-24T00:23:40.676Z,8.63
2022-11-24T00:26:09.767Z,8.17
2022-11-24T00:28:38.829Z,7.93
2022-11-24T00:31:24.489Z,6.87
2022-11-24T00:33:53.826Z,7.40
2022-11-24T00:36:23.449Z,6.37
2022-11-24T00:38:58.510Z,7.23
2022-11-24T00:41:26.909Z,6.70
2022-11-24T00:43:54.720Z,7.70
2022-11-24T00:46:22.239Z,6.03
2022-11-24T00:48:49.473Z,8.80
2022-11-24T00:51:18.925Z,7.37
2022-11-24T00:53:45.725Z,7.27
2022-11-24T00:56:13.505Z,6.83
2022-11-24T00:58:41.592Z,6.33
2022-11-24T01:01:17.077Z,16.10
2022-11-24T01:03:44.843Z,15.63
2022-11-24T01:06:14.406Z,8.23
2022-11-24T01:08:42.691Z,6.07
2022-11-24T01:11:18.432Z,6.53
2022-11-24T01:13:47.732Z,7.97
2022-11-24T01:16:26.357Z,6.53
2022-11-24T01:18:54.224Z,5.43
2022-11-24T01:21:21.902Z,5.93
2022-11-24T01:23:55.302Z,5.67
2022-11-24T01:26:30.943Z,6.25
2022-11-24T01:28:59.542Z,5.87
2022-11-24T01:31:39.875Z,6.03
2022-11-24T01:34:07.401Z,5.73
2022-11-24T01:36:34.865Z,5.67
2022-11-24T01:39:01.962Z,5.57
2022-11-24T01:44:28.091Z,6.07
2022-11-24T01:47:19.941Z,6.70
2022-11-24T01:49:58.040Z,5.90
2022-11-24T01:52:47.799Z,6.23
2022-11-24T01:55:23.244Z,5.97
2022-11-24T01:58:12.395Z,5.87
2022-11-24T02:00:51.806Z,5.60
2022-11-24T02:03:27.627Z,6.77
2022-11-24T02:06:02.771Z,6.97
2022-11-24T02:08:38.675Z,5.83
2022-11-24T02:11:06.746Z,6.07
2022-11-24T02:13:38.951Z,5.50
2022-11-24T02:16:13.144Z,5.50
2022-11-24T02:18:49.825Z,5.70
2022-11-24T02:21:23.250Z,6.33
2022-11-24T02:24:00.115Z,6.57
2022-11-24T02:26:49.622Z,6.10
2022-11-24T02:29:16.985Z,5.37
2022-11-24T02:31:58.836Z,5.27
2022-11-24T02:34:25.808Z,5.53
2022-11-24T02:36:53.038Z,5.43
2022-11-24T02:39:27.753Z,5.17
2022-11-24T02:42:02.414Z,5.57
2022-11-24T02:44:37.749Z,5.17
2022-11-24T02:47:13.172Z,4.90
2022-11-24T02:49:42.081Z,5.27
2022-11-24T02:52:09.533Z,4.77
2022-11-24T02:54:41.086Z,4.80
2022-11-24T02:57:14.208Z,5.50
2022-11-24T02:59:41.258Z,4.88
2022-11-24T03:02:08.725Z,4.63
2022-11-24T03:04:40.999Z,5.17
2022-11-24T03:07:08.310Z,5.40
2022-11-24T03:09:35.978Z,5.30
2022-11-24T03:12:03.344Z,4.93
2022-11-24T03:14:30.398Z,5.07
2022-11-24T03:16:57.786Z,4.70
2022-11-24T03:19:25.096Z,5.13
2022-11-24T03:21:52.802Z,7.63
2022-11-24T03:24:19.845Z,6.43
2022-11-24T03:26:46.862Z,5.47
2022-11-24T03:29:13.812Z,5.10
2022-11-24T03:31:41.007Z,4.93
2022-11-24T03:34:08.451Z,4.57
2022-11-24T03:36:35.951Z,4.93
2022-11-24T03:39:05.045Z,4.60
2022-11-24T03:41:32.112Z,4.83
2022-11-24T03:44:04.643Z,4.93
2022-11-24T03:46:32.080Z,6.20
2022-11-24T03:49:00.160Z,5.63
2022-11-24T03:51:27.203Z,4.67
2022-11-24T03:53:54.402Z,5.20
2022-11-24T03:56:21.555Z,5.27
2022-11-24T03:59:11.148Z,5.20
2022-11-24T04:01:39.110Z,5.70
2022-11-24T04:04:06.320Z,5.57
2022-11-24T04:06:33.190Z,5.13
2022-11-24T04:09:00.791Z,6.03
2022-11-24T04:11:46.490Z,5.77
2022-11-24T04:14:13.864Z,6.10
2022-11-24T04:16:41.190Z,6.40
2022-11-24T04:19:08.319Z,6.90
2022-11-24T04:21:35.533Z,6.50
2022-11-24T04:24:02.453Z,6.33
2022-11-24T04:26:29.322Z,6.80
2022-11-24T04:29:01.155Z,6.57
2022-11-24T04:31:27.970Z,7.93
2022-11-24T04:33:54.827Z,7.53
2022-11-24T04:36:21.798Z,8.10
2022-11-24T04:39:25.721Z,8.90
2022-11-24T04:41:35.884Z,9.23
2022-11-24T04:44:03.100Z,12.03
2022-11-24T04:46:32.036Z,13.37
2022-11-24T04:48:59.148Z,12.37
2022-11-24T04:51:26.121Z,12.37
2022-11-24T04:53:53.247Z,11.40
2022-11-24T04:56:20.013Z,13.73
2022-11-24T04:58:50.141Z,13.37
2022-11-24T05:01:17.110Z,12.13
2022-11-24T05:03:43.995Z,12.53
2022-11-24T05:06:11.031Z,12.00
2022-11-24T05:08:38.890Z,11.57
2022-11-24T05:11:08.020Z,12.47
2022-11-24T05:13:35.612Z,12.00
2022-11-24T05:16:03.183Z,12.60
2022-11-24T05:18:30.331Z,13.03
2022-11-24T05:20:59.025Z,12.67
2022-11-24T05:23:26.805Z,11.27
2022-11-24T05:25:54.517Z,12.20
2022-11-24T05:28:21.429Z,12.10
2022-11-24T05:30:48.234Z,11.23
2022-11-24T05:33:19.310Z,10.40
2022-11-24T05:35:48.060Z,10.07
2022-11-24T05:38:16.018Z,12.60
2022-11-24T05:40:43.664Z,14.83
2022-11-24T05:43:15.152Z,13.93
2022-11-24T05:45:42.825Z,13.73
2022-11-24T05:48:13.474Z,13.17
2022-11-24T05:50:40.846Z,15.93
2022-11-24T05:53:10.497Z,18.73
2022-11-24T05:55:41.107Z,21.77
2022-11-24T06:05:20.586Z,18.50
2022-11-24T06:11:18.864Z,19.60
2022-11-24T06:14:11.098Z,20.23
2022-11-24T06:17:44.761Z,19.53
2022-11-24T06:20:12.472Z,19.00
2022-11-24T06:22:39.820Z,16.40
2022-11-24T06:25:07.690Z,16.23
2022-11-24T06:27:35.275Z,16.97
2022-11-24T06:30:02.613Z,16.60
2022-11-24T06:32:29.733Z,17.50
2022-11-24T06:34:56.547Z,19.33
2022-11-24T06:37:23.546Z,16.77
2022-11-24T06:39:50.683Z,17.83
2022-11-24T06:42:21.444Z,17.93
2022-11-24T06:44:50.432Z,16.80
2022-11-24T06:47:28.875Z,17.70
2022-11-24T06:49:59.614Z,20.37
2022-11-24T06:52:30.837Z,18.33
2022-11-24T06:54:57.628Z,17.50
2022-11-24T06:57:25.484Z,17.60
2022-11-24T07:02:49.621Z,17.93
2022-11-24T07:05:27.711Z,16.33
2022-11-24T07:07:58.040Z,17.03
2022-11-24T07:10:33.239Z,18.10
2022-11-24T07:13:32.249Z,21.63
2022-11-24T07:16:31.702Z,19.20
2022-11-24T07:19:28.386Z,19.80
2022-11-24T07:22:10.457Z,18.67
2022-11-24T07:24:38.607Z,18.77
2022-11-24T07:27:08.872Z,18.63
2022-11-24T07:29:38.822Z,20.90
2022-11-24T07:32:10.899Z,16.20
2022-11-24T07:34:53.050Z,19.00
2022-11-24T07:37:24.520Z,18.17
2022-11-24T07:40:06.965Z,16.73
2022-11-24T07:42:35.169Z,81.03
2022-11-24T07:45:33.753Z,79.03
2022-11-24T07:48:23.266Z,59.77
2022-11-24T07:50:55.783Z,30.03
2022-11-24T07:53:28.580Z,21.73
2022-11-24T07:56:02.211Z,21.70
2022-11-24T07:59:00.051Z,20.40
2022-11-24T08:01:50.795Z,55.60
2022-11-24T08:04:18.312Z,26.20
2022-11-24T08:06:47.443Z,20.50
2022-11-24T08:09:15.205Z,17.70
2022-11-24T08:11:42.114Z,28.50
2022-11-24T08:14:09.074Z,22.10
2022-11-24T08:16:35.852Z,18.10
2022-11-24T08:19:03.129Z,17.93
2022-11-24T08:21:30.921Z,18.23
2022-11-24T08:23:58.167Z,17.80
2022-11-24T08:26:26.108Z,17.60
2022-11-24T08:28:58.684Z,16.63
2022-11-24T08:31:33.181Z,18.03
2022-11-24T08:34:01.352Z,16.00
2022-11-24T08:36:28.667Z,16.50
2022-11-24T08:38:57.287Z,15.40
2022-11-24T08:41:25.373Z,12.87
2022-11-24T08:43:52.181Z,11.30
2022-11-24T08:46:20.673Z,13.03
2022-11-24T08:48:50.368Z,12.40
2022-11-24T08:51:49.009Z,25.57
2022-11-24T08:54:18.798Z,24.23
2022-11-24T08:56:46.486Z,12.17
2022-11-24T08:59:27.781Z,16.10
2022-11-24T09:01:54.798Z,16.40
2022-11-24T09:04:21.881Z,12.17
2022-11-24T09:06:49.524Z,11.73
2022-11-24T09:09:16.685Z,11.73
2022-11-24T09:11:44.148Z,10.60
2022-11-24T09:14:11.041Z,11.33
2022-11-24T09:16:38.283Z,10.20
2022-11-24T09:19:08.479Z,10.83
2022-11-24T09:21:39.715Z,12.47
2022-11-24T09:24:08.279Z,12.17
2022-11-24T09:26:37.313Z,10.87
2022-11-24T09:29:06.578Z,11.63
2022-11-24T09:31:35.861Z,10.97
2022-11-24T09:34:07.409Z,10.80
2022-11-24T09:36:34.468Z,9.43
2022-11-24T09:39:01.727Z,9.53
2022-11-24T09:41:47.166Z,11.30
2022-11-24T09:44:51.871Z,13.00
2022-11-24T09:47:53.254Z,9.70
2022-11-24T09:50:24.388Z,14.30
2022-11-24T09:53:13.570Z,13.70
2022-11-24T09:55:50.722Z,17.93
2022-11-24T09:58:45.214Z,15.97
2022-11-24T10:01:29.685Z,15.73
2022-11-24T10:04:04.273Z,17.10
2022-11-24T10:06:52.006Z,17.60
2022-11-24T10:09:21.995Z,16.27
2022-11-24T10:12:25.305Z,14.87
2022-11-24T10:15:19.376Z,14.00
2022-11-24T10:17:53.386Z,12.63
2022-11-24T10:20:23.283Z,13.37
2022-11-24T10:23:09.005Z,17.30
2022-11-24T10:25:50.441Z,21.27
2022-11-24T10:28:23.156Z,27.87
2022-11-24T10:31:11.314Z,20.10
2022-11-24T10:33:38.744Z,23.40
2022-11-24T10:36:16.339Z,20.27
2022-11-24T10:38:53.724Z,18.00
2022-11-24T10:41:42.492Z,21.17
2022-11-24T10:44:15.966Z,21.90
2022-11-24T10:46:44.929Z,17.40
2022-11-24T10:49:36.456Z,14.80
2022-11-24T10:52:07.484Z,17.47
2022-11-24T10:54:36.777Z,17.93
2022-11-24T10:57:03.968Z,19.53
2022-11-24T11:00:17.374Z,18.27
2022-11-24T11:35:46.427Z,16.67
2022-11-24T11:38:22.288Z,14.30
2022-11-24T11:40:51.082Z,12.53
2022-11-24T11:43:50.217Z,13.23
2022-11-24T11:46:17.331Z,12.17
2022-11-24T11:48:47.721Z,12.70
2022-11-24T11:51:39.193Z,11.57
2022-11-24T11:54:51.673Z,10.77
2022-11-24T11:57:44.405Z,11.23
2022-11-24T12:00:20.825Z,11.77
2022-11-24T12:03:09.096Z,10.40
2022-11-24T12:06:06.237Z,18.43
2022-11-24T12:09:19.165Z,11.10
2022-11-24T12:12:05.945Z,10.37
2022-11-24T12:14:59.619Z,9.87
2022-11-24T12:17:40.933Z,10.05
2022-11-24T12:20:26.349Z,9.77
2022-11-24T12:23:12.816Z,10.00
2022-11-24T12:26:07.592Z,9.60
2022-11-24T12:29:29.256Z,9.27
2022-11-24T12:32:22.691Z,9.30
2022-11-24T12:35:24.676Z,9.00
2022-11-24T12:38:03.142Z,9.33
2022-11-24T12:41:06.451Z,8.80
2022-11-24T12:43:53.660Z,9.80
2022-11-24T12:46:39.960Z,12.40
2022-11-24T12:49:28.007Z,10.30
2022-11-24T12:52:17.879Z,15.63
2022-11-24T12:54:44.626Z,11.33
2022-11-24T12:57:24.003Z,10.03
2022-11-24T13:00:08.702Z,10.93
2022-11-24T13:02:53.847Z,10.07
2022-11-24T13:05:31.542Z,8.77
2022-11-24T13:08:02.015Z,8.30
2022-11-24T13:10:54.762Z,7.50
2022-11-24T13:13:20.408Z,7.30
2022-11-24T13:18:48.914Z,7.40
2022-11-24T13:25:12.012Z,7.87
2022-11-24T13:30:35.698Z,6.43
2022-11-24T13:33:16.536Z,7.10
2022-11-24T13:36:02.821Z,7.83
2022-11-24T13:39:04.752Z,10.27
2022-11-24T13:41:37.350Z,8.47
2022-11-24T13:44:16.878Z,6.97
2022-11-24T13:47:31.722Z,8.20
2022-11-24T13:52:38.697Z,7.80
2022-11-24T13:55:34.391Z,8.57
2022-11-24T13:58:07.746Z,7.93
2022-11-24T14:00:58.351Z,8.18
2022-11-24T14:04:28.801Z,8.37
2022-11-24T14:06:50.679Z,8.43
2022-11-24T14:09:26.673Z,7.90
2022-11-24T14:12:22.640Z,7.77
2022-11-24T14:18:21.592Z,7.70
2022-11-24T14:20:50.170Z,8.37
2022-11-24T14:23:18.346Z,11.87
2022-11-24T14:25:51.602Z,10.33
2022-11-24T14:32:00.877Z,14.37
2022-11-24T14:34:30.277Z,10.40
2022-11-24T14:37:15.307Z,16.03
2022-11-24T14:39:43.245Z,12.70
2022-11-24T14:42:20.285Z,10.60
2022-11-24T14:45:04.479Z,11.63
2022-11-24T14:47:36.427Z,11.90
2022-11-24T14:50:37.923Z,10.20
2022-11-24T14:53:32.770Z,10.27
2022-11-24T14:56:31.323Z,9.40
2022-11-24T14:59:23.806Z,9.57
2022-11-24T15:01:51.686Z,9.50
2022-11-24T15:05:01.628Z,8.63
2022-11-24T15:07:19.965Z,8.27
2022-11-24T15:09:53.920Z,8.67
2022-11-24T15:12:23.834Z,8.60
2022-11-24T15:15:15.201Z,8.43
2022-11-24T15:18:38.300Z,8.93
2022-11-24T15:21:43.843Z,8.70
2022-11-24T15:27:39.280Z,8.30
2022-11-24T15:30:23.556Z,8.60
2022-11-24T15:37:21.253Z,9.03
2022-11-24T15:39:47.902Z,7.87
2022-11-24T15:42:16.243Z,10.10
2022-11-24T15:44:43.445Z,10.53
2022-11-24T15:47:10.144Z,10.50
2022-11-24T15:49:37.600Z,12.03
2022-11-24T15:52:07.099Z,13.47
2022-11-24T15:54:35.292Z,11.73
2022-11-24T15:57:02.157Z,11.10
2022-11-24T15:59:31.835Z,14.17
2022-11-24T16:01:58.509Z,12.53
2022-11-24T16:04:25.107Z,8.90
2022-11-24T16:06:51.722Z,10.20
2022-11-24T16:09:18.450Z,8.87
2022-11-24T16:11:45.125Z,9.03
2022-11-24T16:14:11.917Z,9.70
2022-11-24T16:16:38.794Z,10.40
2022-11-24T16:19:05.422Z,11.57
2022-11-24T16:21:32.104Z,12.30
2022-11-24T16:23:59.289Z,12.27
2022-11-24T16:26:25.900Z,11.47
2022-11-24T16:28:52.587Z,12.07
2022-11-24T16:31:19.890Z,12.67
2022-11-24T16:33:46.774Z,12.13
2022-11-24T16:36:14.445Z,12.80
2022-11-24T16:38:41.135Z,11.33
2022-11-24T16:41:08.976Z,12.47
2022-11-24T16:43:35.620Z,11.80
2022-11-24T16:46:21.358Z,12.07
2022-11-24T16:48:50.373Z,13.30
2022-11-24T16:51:17.964Z,15.10
2022-11-24T16:53:45.196Z,14.20
2022-11-24T16:56:12.080Z,13.40
2022-11-24T16:58:40.541Z,11.87
2022-11-24T17:01:12.309Z,11.73
2022-11-24T17:03:39.528Z,10.03
2022-11-24T17:06:08.332Z,10.47
2022-11-24T17:08:36.814Z,10.23
2022-11-24T17:11:15.009Z,9.23
2022-11-24T17:13:42.362Z,9.30
2022-11-24T17:16:14.228Z,10.20
2022-11-24T17:18:41.354Z,9.33
2022-11-24T17:21:13.063Z,9.63
2022-11-24T17:23:40.108Z,9.63
2022-11-24T17:26:10.535Z,9.97
2022-11-24T17:28:37.961Z,10.63
2022-11-24T17:31:27.496Z,8.90
2022-11-24T17:33:57.157Z,11.40
2022-11-24T17:36:24.656Z,10.57
2022-11-24T17:38:51.305Z,10.50
2022-11-24T17:41:19.346Z,8.87
2022-11-24T17:43:53.500Z,10.07
2022-11-24T17:46:20.337Z,10.07
2022-11-24T17:48:47.393Z,10.13
2022-11-24T17:51:16.431Z,10.10
2022-11-24T17:53:46.055Z,10.17
2022-11-24T17:56:14.966Z,10.30
2022-11-24T17:58:43.311Z,11.30
2022-11-24T18:01:11.980Z,9.57
2022-11-24T18:03:39.831Z,10.03
2022-11-24T18:06:10.865Z,10.00
2022-11-24T18:08:38.819Z,9.90
2022-11-24T18:11:07.651Z,9.83
2022-11-24T18:13:55.869Z,10.80
2022-11-24T18:16:21.678Z,11.63
2022-11-24T18:18:50.982Z,12.57
2022-11-24T18:21:18.633Z,12.93
2022-11-24T18:23:46.854Z,13.40
2022-11-24T18:26:15.663Z,13.47
2022-11-24T18:28:43.596Z,12.73
2022-11-24T18:31:14.257Z,11.47
2022-11-24T18:33:43.523Z,13.17
2022-11-24T18:36:14.491Z,12.80
2022-11-24T18:38:41.912Z,13.07
2022-11-24T18:41:08.882Z,11.10
2022-11-24T18:43:37.594Z,13.30
2022-11-24T18:46:16.396Z,13.47
2022-11-24T18:48:44.357Z,13.87
2022-11-24T18:51:15.333Z,15.20
2022-11-24T18:53:43.824Z,14.00
2022-11-24T18:56:16.089Z,14.77
2022-11-24T18:58:44.484Z,13.60
2022-11-24T19:01:12.834Z,14.47
2022-11-24T19:03:48.587Z,14.30
2022-11-24T19:06:24.032Z,14.40
2022-11-24T19:08:53.502Z,13.83
2022-11-24T19:11:23.751Z,14.83
2022-11-24T19:13:51.207Z,13.57
2022-11-24T19:16:20.261Z,13.83
2022-11-24T19:18:53.763Z,16.13
2022-11-24T19:21:22.495Z,26.17
2022-11-24T19:23:50.312Z,18.87
2022-11-24T19:26:17.775Z,23.10
2022-11-24T19:28:44.821Z,49.17
2022-11-24T19:31:14.498Z,26.30
2022-11-24T19:33:45.425Z,44.53
2022-11-24T19:36:16.697Z,21.80
2022-11-24T19:38:50.686Z,26.27
2022-11-24T19:41:22.835Z,21.67
2022-11-24T19:43:49.630Z,17.53
2022-11-24T19:46:18.817Z,18.40
2022-11-24T19:48:49.190Z,20.23
2022-11-24T19:51:22.061Z,18.17
2022-11-24T19:53:48.819Z,16.48
2022-11-24T19:56:20.208Z,21.00
2022-11-24T19:58:47.567Z,18.70
2022-11-24T20:01:16.985Z,18.77
2022-11-24T20:03:45.940Z,20.07
2022-11-24T20:06:14.925Z,21.07
2022-11-24T20:08:43.528Z,20.40
2022-11-24T20:11:13.005Z,20.53
2022-11-24T20:13:42.414Z,19.93
2022-11-24T20:16:20.332Z,22.13
2022-11-24T20:18:48.089Z,20.93
2022-11-24T20:21:17.944Z,20.07
2022-11-24T20:23:46.884Z,19.83
2022-11-24T20:26:16.233Z,33.20
2022-11-24T20:28:43.407Z,28.93
2022-11-24T20:31:15.975Z,65.97
2022-11-24T20:33:43.670Z,35.03
2022-11-24T20:36:16.867Z,28.87
2022-11-24T20:38:45.314Z,23.30
2022-11-24T20:41:17.707Z,20.67
2022-11-24T20:43:46.069Z,17.77
2022-11-24T20:46:26.845Z,19.33
2022-11-24T20:48:55.681Z,18.70
2022-11-24T20:51:25.142Z,18.90
2022-11-24T20:53:55.103Z,18.73
2022-11-24T20:56:25.398Z,18.63
2022-11-24T20:58:52.969Z,17.93
2022-11-24T21:01:29.177Z,17.13
2022-11-24T21:03:59.744Z,17.90
2022-11-24T21:06:28.513Z,16.87
2022-11-24T21:09:00.406Z,18.40
2022-11-24T21:11:31.096Z,17.73
2022-11-24T21:13:58.514Z,20.83
2022-11-24T21:16:31.490Z,19.20
2022-11-24T21:19:05.432Z,21.10
2022-11-24T21:21:35.492Z,19.20
2022-11-24T21:24:04.643Z,24.63
2022-11-24T21:26:32.241Z,20.70
2022-11-24T21:28:59.430Z,21.87
2022-11-24T21:31:26.571Z,30.07
2022-11-24T21:33:55.101Z,27.17
2022-11-24T21:36:24.727Z,24.27
2022-11-24T21:38:57.044Z,20.27
2022-11-24T21:41:26.742Z,20.60
2022-11-24T21:43:57.797Z,20.67
2022-11-24T21:46:25.502Z,20.73
2022-11-24T21:48:52.672Z,18.10
2022-11-24T21:51:20.988Z,20.77
2022-11-24T21:53:48.292Z,21.67
2022-11-24T21:56:21.021Z,20.60
2022-11-24T21:58:53.977Z,23.27
2022-11-24T22:01:23.950Z,21.45
2022-11-24T22:03:51.696Z,21.93
2022-11-24T22:06:20.616Z,20.97
2022-11-24T22:08:48.924Z,22.50
2022-11-24T22:11:21.933Z,21.93
2022-11-24T22:13:50.932Z,20.50
2022-11-24T22:16:22.872Z,20.47
2022-11-24T22:18:50.994Z,21.97
2022-11-24T22:21:30.860Z,21.03
2022-11-24T22:23:58.365Z,20.57
2022-11-24T22:26:26.326Z,21.63
2022-11-24T22:28:57.823Z,19.50
2022-11-24T22:31:27.986Z,21.40
2022-11-24T22:33:56.526Z,20.93
2022-11-24T22:36:25.724Z,19.97
2022-11-24T22:39:03.378Z,21.00
2022-11-24T22:41:31.495Z,20.93
2022-11-24T22:43:58.822Z,21.87
2022-11-24T22:46:29.728Z,18.87
2022-11-24T22:48:59.712Z,20.67
2022-11-24T22:51:34.734Z,19.00
2022-11-24T22:54:03.294Z,20.57
2022-11-24T22:56:32.635Z,19.93
2022-11-24T22:59:00.973Z,20.33
2022-11-24T23:01:30.551Z,20.07
2022-11-24T23:03:58.391Z,20.30
2022-11-24T23:06:27.508Z,21.10
2022-11-24T23:08:56.065Z,19.13
2022-11-24T23:11:34.846Z,18.60
2022-11-24T23:14:11.760Z,20.47
2022-11-24T23:16:38.494Z,19.00
2022-11-24T23:19:06.323Z,17.50
2022-11-24T23:21:36.548Z,17.77
2022-11-24T23:24:05.151Z,17.93
2022-11-24T23:26:36.143Z,19.17
2022-11-24T23:29:04.479Z,18.87
2022-11-24T23:31:32.488Z,17.77
2022-11-24T23:34:01.797Z,17.73
2022-11-24T23:36:30.194Z,17.10
2022-11-24T23:39:02.055Z,19.10
2022-11-24T23:41:31.590Z,17.83
2022-11-24T23:43:59.150Z,18.10
2022-11-24T23:46:27.656Z,19.03
2022-11-24T23:48:56.808Z,20.37
2022-11-24T23:51:29.588Z,19.13
2022-11-24T23:53:58.150Z,20.10
2022-11-24T23:56:29.123Z,20.90
2022-11-24T23:58:55.796Z,21.53
